Time;durP1;ratioP1;P1;durP2;ratioP2;P2;SDS_P1;SDS_P2;PMS_P1;PMS_P2;Temp;Humidity;BMP_temperature;BMP_pressure;BME280_temperature;BME280_humidity;BME280_pressure;Samples;Min_cycle;Max_cycle;Signal;HPM_P1;HPM_P2
2022/05/18 00:00:33;;;;;;;4.20;3.80;;;;;;;;;;5023610;28;20202;-65
2022/05/18 00:03:09;;;;;;;4.33;3.93;;;;;;;;;;5011812;28;20199;-66
2022/05/18 00:05:38;;;;;;;6.67;3.77;;;;;;;;;;5016589;28;20293;-64
2022/05/18 00:08:05;;;;;;;5.07;3.90;;;;;;;;;;5018507;28;20230;-65
2022/05/18 00:10:34;;;;;;;4.60;3.90;;;;;;;;;;5013426;28;20264;-64
2022/05/18 00:13:01;;;;;;;4.53;4.13;;;;;;;;;;5015882;28;20275;-65
2022/05/18 00:15:29;;;;;;;5.27;3.40;;;;;;;;;;5020570;28;20211;-66
2022/05/18 00:17:57;;;;;;;4.00;3.63;;;;;;;;;;5015766;28;20302;-66
2022/05/18 00:20:25;;;;;;;4.03;3.73;;;;;;;;;;5013589;28;20218;-65
2022/05/18 00:22:53;;;;;;;4.00;3.57;;;;;;;;;;5012097;28;20226;-65
2022/05/18 00:25:22;;;;;;;3.90;3.60;;;;;;;;;;5020403;28;20316;-65
2022/05/18 00:27:51;;;;;;;3.23;3.00;;;;;;;;;;5036119;28;20215;-66
2022/05/18 00:30:19;;;;;;;4.13;3.73;;;;;;;;;;5014316;28;20240;-66
2022/05/18 00:32:47;;;;;;;3.90;3.60;;;;;;;;;;5014976;28;20675;-65
2022/05/18 00:35:15;;;;;;;4.13;3.80;;;;;;;;;;5019080;28;20233;-66
2022/05/18 00:37:43;;;;;;;4.53;4.10;;;;;;;;;;5018200;28;20210;-65
2022/05/18 00:40:11;;;;;;;4.67;4.27;;;;;;;;;;5016945;28;20230;-65
2022/05/18 00:42:39;;;;;;;4.87;3.97;;;;;;;;;;5019835;28;20205;-64
2022/05/18 00:45:07;;;;;;;5.70;5.10;;;;;;;;;;5023394;28;20593;-65
2022/05/18 00:47:35;;;;;;;7.60;5.17;;;;;;;;;;5011862;28;20234;-65
2022/05/18 00:50:08;;;;;;;7.40;5.70;;;;;;;;;;5008023;28;20234;-65
2022/05/18 00:52:56;;;;;;;4.83;4.27;;;;;;;;;;5009786;28;20205;-64
2022/05/18 00:55:24;;;;;;;4.67;4.13;;;;;;;;;;5007280;28;20206;-65
2022/05/18 00:58:10;;;;;;;6.53;4.60;;;;;;;;;;5031741;28;20244;-66
2022/05/18 01:00:39;;;;;;;4.83;4.20;;;;;;;;;;5020663;28;20204;-65
2022/05/18 01:03:13;;;;;;;4.67;4.23;;;;;;;;;;5024672;28;20267;-65
2022/05/18 01:05:42;;;;;;;4.97;3.80;;;;;;;;;;5008984;28;20214;-66
2022/05/18 01:08:11;;;;;;;5.20;4.00;;;;;;;;;;5013299;28;20740;-66
2022/05/18 01:10:38;;;;;;;4.30;3.90;;;;;;;;;;5026100;28;20232;-67
2022/05/18 01:13:06;;;;;;;4.17;3.77;;;;;;;;;;5025796;28;20198;-66
2022/05/18 01:15:33;;;;;;;4.07;3.70;;;;;;;;;;5018876;28;20235;-67
2022/05/18 01:18:01;;;;;;;4.80;4.10;;;;;;;;;;5018716;28;21126;-66
2022/05/18 01:20:32;;;;;;;3.90;3.60;;;;;;;;;;5017371;28;20720;-66
2022/05/18 01:23:08;;;;;;;4.67;3.37;;;;;;;;;;5021180;28;20229;-66
2022/05/18 01:25:36;;;;;;;4.00;3.60;;;;;;;;;;5017100;28;20215;-66
2022/05/18 01:28:04;;;;;;;4.40;4.00;;;;;;;;;;5018763;28;20284;-67
2022/05/18 01:30:32;;;;;;;4.70;4.20;;;;;;;;;;5022452;28;20209;-66
2022/05/18 01:33:00;;;;;;;4.23;3.90;;;;;;;;;;5013635;28;20218;-66
2022/05/18 01:35:29;;;;;;;6.83;3.80;;;;;;;;;;5016937;28;20213;-66
2022/05/18 01:37:57;;;;;;;4.50;4.10;;;;;;;;;;5012612;28;20214;-66
2022/05/18 01:40:43;;;;;;;5.13;4.23;;;;;;;;;;5013175;28;20252;-66
2022/05/18 01:43:17;;;;;;;6.47;4.30;;;;;;;;;;5015406;28;20210;-66
2022/05/18 01:45:50;;;;;;;5.27;4.47;;;;;;;;;;5032767;28;20202;-65
2022/05/18 01:48:19;;;;;;;4.40;4.00;;;;;;;;;;5012862;28;20357;-66
2022/05/18 01:50:48;;;;;;;5.10;4.60;;;;;;;;;;5014707;28;20203;-67
2022/05/18 01:53:15;;;;;;;4.80;4.40;;;;;;;;;;5019551;28;20221;-66
2022/05/18 01:55:43;;;;;;;4.50;4.20;;;;;;;;;;5032208;28;20210;-65
2022/05/18 01:58:13;;;;;;;5.00;4.50;;;;;;;;;;5019024;28;20206;-65
2022/05/18 02:00:41;;;;;;;5.20;4.50;;;;;;;;;;5015970;28;20271;-65
2022/05/18 02:03:10;;;;;;;5.20;4.70;;;;;;;;;;5017184;28;20292;-65
2022/05/18 02:05:38;;;;;;;5.93;4.47;;;;;;;;;;5023788;28;20881;-65
2022/05/18 02:08:06;;;;;;;6.20;4.43;;;;;;;;;;5016194;28;20238;-65
2022/05/18 02:10:34;;;;;;;4.90;4.43;;;;;;;;;;5019317;28;20217;-67
2022/05/18 02:13:02;;;;;;;6.83;5.23;;;;;;;;;;5019906;28;20574;-65
2022/05/18 02:15:29;;;;;;;4.90;4.40;;;;;;;;;;5023760;28;20263;-65
2022/05/18 02:17:56;;;;;;;7.20;4.87;;;;;;;;;;5014734;28;20198;-66
2022/05/18 02:20:24;;;;;;;5.67;5.00;;;;;;;;;;5014672;28;20383;-64
2022/05/18 02:22:52;;;;;;;6.77;5.47;;;;;;;;;;5021464;28;21197;-64
2022/05/18 02:25:20;;;;;;;7.03;5.53;;;;;;;;;;5021500;28;20214;-65
2022/05/18 02:27:48;;;;;;;6.97;5.70;;;;;;;;;;5030266;28;20967;-64
2022/05/18 02:30:16;;;;;;;7.20;5.60;;;;;;;;;;5019020;28;20218;-63
2022/05/18 02:32:43;;;;;;;6.90;5.77;;;;;;;;;;5029946;28;20241;-63
2022/05/18 02:35:10;;;;;;;7.97;6.70;;;;;;;;;;5013616;28;20231;-63
2022/05/18 02:37:38;;;;;;;8.93;7.50;;;;;;;;;;5018679;28;20205;-64
2022/05/18 02:40:06;;;;;;;8.33;7.23;;;;;;;;;;5014992;28;20226;-64
2022/05/18 02:42:34;;;;;;;8.23;6.67;;;;;;;;;;5011655;28;20669;-64
2022/05/18 02:45:02;;;;;;;7.00;6.30;;;;;;;;;;5022483;28;20296;-64
2022/05/18 02:47:29;;;;;;;5.80;5.30;;;;;;;;;;5017251;28;20496;-64
2022/05/18 02:49:56;;;;;;;7.23;6.07;;;;;;;;;;5008224;28;20230;-65
2022/05/18 02:52:24;;;;;;;6.10;5.47;;;;;;;;;;5018061;28;20289;-64
2022/05/18 02:57:37;;;;;;;6.23;5.63;;;;;;;;;;5029287;28;20210;-64
2022/05/18 03:00:07;;;;;;;6.90;5.93;;;;;;;;;;5032507;28;20227;-64
2022/05/18 03:02:35;;;;;;;8.27;6.87;;;;;;;;;;5013098;28;20202;-64
2022/05/18 03:05:03;;;;;;;7.40;5.93;;;;;;;;;;5016297;28;20206;-63
2022/05/18 03:07:31;;;;;;;8.87;7.10;;;;;;;;;;5016088;28;20553;-63
2022/05/18 03:09:59;;;;;;;7.90;6.03;;;;;;;;;;5014763;28;20241;-64
2022/05/18 03:12:27;;;;;;;7.03;5.73;;;;;;;;;;5037241;28;20643;-63
2022/05/18 03:14:54;;;;;;;5.97;5.37;;;;;;;;;;5013944;28;20207;-64
2022/05/18 03:17:22;;;;;;;6.73;5.60;;;;;;;;;;5015089;28;20619;-64
2022/05/18 03:19:49;;;;;;;6.10;5.43;;;;;;;;;;5010105;28;20704;-64
2022/05/18 03:25:05;;;;;;;5.50;5.07;;;;;;;;;;5032732;28;20207;-65
2022/05/18 03:27:33;;;;;;;6.03;5.43;;;;;;;;;;5017933;28;20220;-64
2022/05/18 03:30:00;;;;;;;9.93;6.30;;;;;;;;;;5015004;28;20226;-64
2022/05/18 03:32:28;;;;;;;7.87;6.00;;;;;;;;;;5030368;28;20198;-64
2022/05/18 03:34:55;;;;;;;7.07;6.20;;;;;;;;;;5012873;28;20205;-64
2022/05/18 03:37:23;;;;;;;7.87;5.87;;;;;;;;;;5022274;28;20233;-64
2022/05/18 03:39:50;;;;;;;6.90;5.80;;;;;;;;;;5015800;28;20226;-63
2022/05/18 03:42:17;;;;;;;6.43;5.80;;;;;;;;;;5003627;28;20214;-64
2022/05/18 03:44:45;;;;;;;7.30;6.00;;;;;;;;;;5016799;28;20210;-65
2022/05/18 03:47:12;;;;;;;6.00;5.40;;;;;;;;;;5009401;28;20214;-64
2022/05/18 03:49:39;;;;;;;8.50;6.00;;;;;;;;;;5015890;28;20229;-64
2022/05/18 03:52:07;;;;;;;5.90;5.37;;;;;;;;;;5021240;28;20202;-64
2022/05/18 03:54:36;;;;;;;11.83;7.37;;;;;;;;;;5019135;28;20210;-64
2022/05/18 03:57:06;;;;;;;13.43;7.47;;;;;;;;;;5019889;28;20202;-64
2022/05/18 03:59:34;;;;;;;8.40;7.13;;;;;;;;;;5015404;28;20229;-64
2022/05/18 04:02:01;;;;;;;10.37;6.83;;;;;;;;;;5017082;28;20213;-63
2022/05/18 04:04:29;;;;;;;8.70;7.53;;;;;;;;;;5016311;28;20270;-63
2022/05/18 04:06:56;;;;;;;13.33;9.60;;;;;;;;;;5013849;28;20215;-63
2022/05/18 04:09:24;;;;;;;12.17;9.50;;;;;;;;;;5010856;28;20252;-64
2022/05/18 04:11:51;;;;;;;9.97;8.37;;;;;;;;;;5012534;28;20292;-63
2022/05/18 04:14:18;;;;;;;7.80;6.63;;;;;;;;;;5012102;28;20214;-64
2022/05/18 04:16:49;;;;;;;7.50;5.93;;;;;;;;;;5016846;28;20293;-66
2022/05/18 04:19:16;;;;;;;7.40;6.00;;;;;;;;;;5013453;28;20231;-64
2022/05/18 04:21:44;;;;;;;7.27;6.27;;;;;;;;;;5009803;28;20664;-64
2022/05/18 04:24:12;;;;;;;6.07;5.47;;;;;;;;;;5015547;28;20210;-64
2022/05/18 04:26:39;;;;;;;6.83;6.13;;;;;;;;;;5022838;28;20244;-63
2022/05/18 04:29:07;;;;;;;7.03;6.33;;;;;;;;;;5011287;28;20300;-64
2022/05/18 04:31:34;;;;;;;7.10;5.50;;;;;;;;;;5009018;28;20203;-63
2022/05/18 04:34:02;;;;;;;7.73;5.77;;;;;;;;;;5025664;28;20591;-64
2022/05/18 04:36:29;;;;;;;7.07;5.97;;;;;;;;;;5008979;28;20206;-64
2022/05/18 04:38:57;;;;;;;6.40;5.80;;;;;;;;;;5006732;28;20235;-64
2022/05/18 04:41:24;;;;;;;6.90;5.90;;;;;;;;;;5009330;28;20696;-64
2022/05/18 04:43:52;;;;;;;8.20;5.90;;;;;;;;;;5010404;28;20960;-64
2022/05/18 04:46:19;;;;;;;6.80;6.10;;;;;;;;;;5005168;28;20229;-64
2022/05/18 04:48:47;;;;;;;6.73;5.87;;;;;;;;;;5015192;28;20260;-64
2022/05/18 04:51:14;;;;;;;6.87;6.17;;;;;;;;;;5012814;28;20198;-65
2022/05/18 04:53:43;;;;;;;7.37;6.67;;;;;;;;;;5015448;28;20202;-64
2022/05/18 04:56:10;;;;;;;8.43;6.43;;;;;;;;;;5017449;28;20190;-64
2022/05/18 04:58:37;;;;;;;7.17;6.20;;;;;;;;;;5014325;28;20229;-65
2022/05/18 05:01:07;;;;;;;8.50;6.20;;;;;;;;;;5034499;28;20199;-64
2022/05/18 05:03:34;;;;;;;7.87;6.50;;;;;;;;;;5027255;28;20263;-63
2022/05/18 05:06:03;;;;;;;9.03;6.53;;;;;;;;;;5015807;28;20207;-66
2022/05/18 05:08:30;;;;;;;9.50;6.37;;;;;;;;;;5016813;28;20230;-63
2022/05/18 05:10:58;;;;;;;6.73;6.00;;;;;;;;;;5017512;28;20214;-64
2022/05/18 05:13:25;;;;;;;7.33;6.03;;;;;;;;;;5014506;28;20210;-66
2022/05/18 05:16:06;;;;;;;6.57;5.97;;;;;;;;;;5015728;28;20210;-64
2022/05/18 05:18:34;;;;;;;7.33;5.80;;;;;;;;;;5020807;28;20254;-64
2022/05/18 05:21:02;;;;;;;8.50;5.87;;;;;;;;;;5020622;28;20236;-64
2022/05/18 05:23:30;;;;;;;8.33;5.73;;;;;;;;;;5017064;28;20222;-64
2022/05/18 05:25:57;;;;;;;5.93;4.80;;;;;;;;;;5017798;28;20222;-65
2022/05/18 05:28:25;;;;;;;5.60;4.25;;;;;;;;;;5016132;28;20233;-65
2022/05/18 05:30:53;;;;;;;4.82;3.90;;;;;;;;;;5015574;28;20223;-66
2022/05/18 05:33:24;;;;;;;5.30;3.90;;;;;;;;;;5019434;28;20270;-66
2022/05/18 05:35:57;;;;;;;5.30;3.63;;;;;;;;;;5019531;28;20561;-65
2022/05/18 05:38:25;;;;;;;3.72;3.42;;;;;;;;;;5011172;28;20219;-65
2022/05/18 05:40:52;;;;;;;4.13;3.30;;;;;;;;;;5018869;28;20210;-63
2022/05/18 05:43:20;;;;;;;3.17;2.97;;;;;;;;;;5021222;28;20253;-65
2022/05/18 05:45:58;;;;;;;3.80;3.08;;;;;;;;;;5022057;28;20214;-64
2022/05/18 05:48:30;;;;;;;3.58;3.28;;;;;;;;;;5010942;28;20872;-65
2022/05/18 05:50:58;;;;;;;3.75;3.42;;;;;;;;;;5008067;28;20236;-66
2022/05/18 05:53:25;;;;;;;4.93;3.10;;;;;;;;;;5008583;28;20241;-65
2022/05/18 05:55:59;;;;;;;4.30;2.95;;;;;;;;;;5007889;28;20308;-64
2022/05/18 05:58:27;;;;;;;3.58;2.97;;;;;;;;;;5008129;28;20711;-65
2022/05/18 06:00:58;;;;;;;5.68;3.38;;;;;;;;;;5008383;28;20324;-65
2022/05/18 06:03:26;;;;;;;5.97;3.67;;;;;;;;;;5000857;28;20226;-65
2022/05/18 06:05:56;;;;;;;3.80;3.15;;;;;;;;;;5003289;28;20210;-65
2022/05/18 06:08:24;;;;;;;4.47;3.55;;;;;;;;;;5006833;28;21352;-66
2022/05/18 06:10:51;;;;;;;4.72;3.60;;;;;;;;;;5007169;28;20761;-65
2022/05/18 06:13:19;;;;;;;4.28;3.55;;;;;;;;;;5006091;28;20257;-66
2022/05/18 06:15:47;;;;;;;6.07;3.50;;;;;;;;;;5024742;28;20175;-66
2022/05/18 06:18:15;;;;;;;3.95;3.63;;;;;;;;;;5012700;28;20287;-64
2022/05/18 06:20:47;;;;;;;5.05;3.60;;;;;;;;;;5008164;28;20214;-65
2022/05/18 06:23:15;;;;;;;4.60;3.90;;;;;;;;;;5015735;28;20587;-65
2022/05/18 06:25:43;;;;;;;6.18;3.90;;;;;;;;;;5022375;28;20233;-66
2022/05/18 06:28:11;;;;;;;7.38;3.90;;;;;;;;;;5022818;28;20313;-65
2022/05/18 06:30:38;;;;;;;3.10;2.90;;;;;;;;;;5015340;28;20771;-66
2022/05/18 06:33:06;;;;;;;4.90;3.70;;;;;;;;;;5006224;28;20206;-65
2022/05/18 06:35:33;;;;;;;5.28;3.03;;;;;;;;;;5014603;28;20198;-65
2022/05/18 06:38:01;;;;;;;4.43;3.45;;;;;;;;;;5023237;28;20202;-66
2022/05/18 06:41:29;;;;;;;4.10;3.13;;;;;;;;;;5019493;28;20260;-65
2022/05/18 06:43:25;;;;;;;4.40;3.30;;;;;;;;;;5019432;28;20214;-66
2022/05/18 06:45:53;;;;;;;3.50;3.08;;;;;;;;;;5027725;28;20203;-65
2022/05/18 06:48:22;;;;;;;3.72;3.42;;;;;;;;;;5005552;28;20698;-66
2022/05/18 06:51:10;;;;;;;10.32;3.67;;;;;;;;;;5010521;28;20388;-66
2022/05/18 06:53:38;;;;;;;4.07;3.10;;;;;;;;;;5006306;28;20217;-66
2022/05/18 06:56:06;;;;;;;7.50;3.13;;;;;;;;;;5014198;28;20725;-67
2022/05/18 06:58:33;;;;;;;4.20;3.38;;;;;;;;;;5005108;28;20234;-65
2022/05/18 07:01:01;;;;;;;4.45;3.17;;;;;;;;;;5006922;28;20281;-63
2022/05/18 07:03:29;;;;;;;3.75;3.38;;;;;;;;;;4997039;28;20280;-65
2022/05/18 07:05:57;;;;;;;4.05;3.33;;;;;;;;;;5020937;28;20244;-65
2022/05/18 07:08:25;;;;;;;4.43;3.08;;;;;;;;;;5012295;28;20657;-64
2022/05/18 07:10:52;;;;;;;3.60;3.30;;;;;;;;;;5008478;28;20234;-65
2022/05/18 07:13:19;;;;;;;4.22;2.97;;;;;;;;;;5018010;28;20260;-65
2022/05/18 07:15:47;;;;;;;4.45;3.10;;;;;;;;;;5012191;28;20221;-65
2022/05/18 07:18:15;;;;;;;4.80;3.25;;;;;;;;;;5012068;28;20213;-65
2022/05/18 07:20:42;;;;;;;4.88;3.13;;;;;;;;;;5014782;28;20269;-65
2022/05/18 07:23:10;;;;;;;4.47;2.90;;;;;;;;;;5021413;28;20814;-65
2022/05/18 07:25:38;;;;;;;3.20;2.90;;;;;;;;;;5016133;28;20209;-65
2022/05/18 07:28:05;;;;;;;4.93;3.40;;;;;;;;;;4997241;28;20199;-65
2022/05/18 07:30:50;;;;;;;4.32;3.28;;;;;;;;;;5002272;28;20246;-64
2022/05/18 07:33:20;;;;;;;4.05;3.33;;;;;;;;;;5005963;28;20206;-64
2022/05/18 07:35:49;;;;;;;4.00;3.20;;;;;;;;;;5013813;28;20340;-63
2022/05/18 07:38:18;;;;;;;5.43;3.22;;;;;;;;;;4997911;28;20377;-64
2022/05/18 07:41:04;;;;;;;4.63;3.20;;;;;;;;;;5011517;28;20244;-65
2022/05/18 07:43:32;;;;;;;4.50;4.05;;;;;;;;;;5007856;28;20226;-64
2022/05/18 07:45:59;;;;;;;3.50;3.15;;;;;;;;;;5008698;28;20214;-66
2022/05/18 07:48:27;;;;;;;5.85;3.58;;;;;;;;;;5007345;28;20225;-65
2022/05/18 07:50:55;;;;;;;4.90;3.53;;;;;;;;;;5021678;28;20343;-65
2022/05/18 07:53:22;;;;;;;4.15;3.72;;;;;;;;;;5021907;28;20206;-64
2022/05/18 07:55:50;;;;;;;5.05;3.50;;;;;;;;;;5018884;28;20725;-65
2022/05/18 07:58:18;;;;;;;4.22;3.47;;;;;;;;;;5015957;28;20206;-65
2022/05/18 08:00:46;;;;;;;6.00;3.60;;;;;;;;;;5021020;28;20277;-65
2022/05/18 08:03:14;;;;;;;4.28;3.75;;;;;;;;;;5023279;28;20353;-65
2022/05/18 08:05:42;;;;;;;6.15;3.15;;;;;;;;;;5020455;28;20210;-65
2022/05/18 08:08:14;;;;;;;4.72;4.28;;;;;;;;;;5020743;28;20217;-65
2022/05/18 08:16:16;;;;;;;4.32;3.72;;;;;;;;;;5040703;28;20202;-66
2022/05/18 08:18:44;;;;;;;6.22;3.65;;;;;;;;;;5018634;28;20311;-66
2022/05/18 08:21:12;;;;;;;4.97;3.95;;;;;;;;;;5021166;28;20672;-65
2022/05/18 08:23:39;;;;;;;5.13;3.22;;;;;;;;;;5038160;28;20214;-65
2022/05/18 08:26:07;;;;;;;4.05;3.28;;;;;;;;;;5020402;28;20205;-64
2022/05/18 08:28:35;;;;;;;7.80;3.67;;;;;;;;;;5024377;28;20230;-62
2022/05/18 08:31:03;;;;;;;3.88;3.28;;;;;;;;;;5018528;28;20218;-65
2022/05/18 08:33:34;;;;;;;3.45;3.15;;;;;;;;;;5019127;28;20213;-66
2022/05/18 08:36:03;;;;;;;4.88;3.40;;;;;;;;;;5017817;28;20205;-64
2022/05/18 08:38:31;;;;;;;5.35;3.40;;;;;;;;;;5029104;28;20413;-65
2022/05/18 08:40:59;;;;;;;4.95;3.25;;;;;;;;;;5020784;28;20221;-65
2022/05/18 08:43:27;;;;;;;3.58;3.22;;;;;;;;;;5021165;28;20864;-65
2022/05/18 08:46:04;;;;;;;4.63;3.25;;;;;;;;;;5019355;28;20207;-65
2022/05/18 08:48:32;;;;;;;3.72;2.72;;;;;;;;;;5018483;28;20393;-64
2022/05/18 08:51:04;;;;;;;3.30;3.00;;;;;;;;;;5011239;28;20234;-65
2022/05/18 08:53:51;;;;;;;5.63;3.15;;;;;;;;;;5022434;28;20307;-65
2022/05/18 08:56:33;;;;;;;2.95;2.75;;;;;;;;;;5016914;28;20221;-64
2022/05/18 08:59:05;;;;;;;3.58;3.22;;;;;;;;;;5011228;28;20232;-64
2022/05/18 09:01:42;;;;;;;3.67;2.92;;;;;;;;;;5009826;28;20202;-65
2022/05/18 09:04:12;;;;;;;4.40;3.03;;;;;;;;;;5020595;28;20209;-64
2022/05/18 09:06:47;;;;;;;4.57;2.80;;;;;;;;;;5014912;28;20800;-64
2022/05/18 09:12:12;;;;;;;3.42;2.60;;;;;;;;;;5033893;28;20213;-65
2022/05/18 09:14:42;;;;;;;3.10;2.70;;;;;;;;;;5012701;28;20214;-65
2022/05/18 09:17:12;;;;;;;3.95;2.90;;;;;;;;;;5022448;28;20221;-67
2022/05/18 09:19:44;;;;;;;3.88;2.72;;;;;;;;;;5019956;28;20573;-64
2022/05/18 09:22:27;;;;;;;2.90;2.70;;;;;;;;;;5018959;28;20203;-64
2022/05/18 09:25:01;;;;;;;3.10;2.80;;;;;;;;;;5026908;28;20217;-65
2022/05/18 09:27:47;;;;;;;6.18;2.65;;;;;;;;;;5022766;28;20205;-64
2022/05/18 09:30:20;;;;;;;4.13;2.67;;;;;;;;;;5019640;28;20285;-65
2022/05/18 09:32:51;;;;;;;3.70;2.67;;;;;;;;;;5022577;28;20256;-64
2022/05/18 09:35:21;;;;;;;3.10;2.67;;;;;;;;;;5018924;28;20874;-66
2022/05/18 09:37:55;;;;;;;3.08;2.55;;;;;;;;;;5035728;28;20888;-65
2022/05/18 09:40:32;;;;;;;3.08;2.63;;;;;;;;;;5023496;28;20233;-66
2022/05/18 09:43:12;;;;;;;2.88;2.30;;;;;;;;;;5020295;28;20207;-66
2022/05/18 09:45:44;;;;;;;2.90;2.30;;;;;;;;;;5010285;28;20435;-65
2022/05/18 09:48:24;;;;;;;3.35;2.30;;;;;;;;;;5016607;28;20333;-65
2022/05/18 09:50:52;;;;;;;5.43;2.40;;;;;;;;;;5019969;28;20233;-65
2022/05/18 09:53:20;;;;;;;3.15;2.30;;;;;;;;;;5016170;28;20203;-65
2022/05/18 09:55:49;;;;;;;2.55;2.28;;;;;;;;;;5032610;28;20198;-65
2022/05/18 09:58:20;;;;;;;2.80;2.22;;;;;;;;;;5024572;28;20207;-65
2022/05/18 10:00:47;;;;;;;4.40;2.60;;;;;;;;;;5014159;28;20225;-65
2022/05/18 10:08:54;;;;;;;2.38;2.17;;;;;;;;;;5034308;28;20237;-65
2022/05/18 10:11:23;;;;;;;2.95;2.17;;;;;;;;;;5018516;28;20707;-64
2022/05/18 10:14:11;;;;;;;3.38;2.10;;;;;;;;;;5024520;28;20671;-65
2022/05/18 10:16:47;;;;;;;2.60;2.40;;;;;;;;;;5018826;28;20901;-65
2022/05/18 10:19:20;;;;;;;3.50;2.05;;;;;;;;;;5045631;28;20742;-65
2022/05/18 10:21:56;;;;;;;2.75;1.98;;;;;;;;;;5022078;28;20202;-66
2022/05/18 10:24:23;;;;;;;2.38;1.90;;;;;;;;;;5016613;28;20248;-65
2022/05/18 10:27:23;;;;;;;3.03;1.73;;;;;;;;;;5013665;28;20268;-65
2022/05/18 10:30:08;;;;;;;3.05;2.53;;;;;;;;;;4983132;28;20228;-65
2022/05/18 10:32:37;;;;;;;3.30;2.22;;;;;;;;;;5018150;28;20287;-65
2022/05/18 10:35:05;;;;;;;2.30;2.05;;;;;;;;;;5015710;28;20206;-64
2022/05/18 10:37:33;;;;;;;3.05;2.00;;;;;;;;;;5011586;28;20241;-64
2022/05/18 10:40:02;;;;;;;2.80;2.15;;;;;;;;;;5014394;28;20708;-64
2022/05/18 10:42:42;;;;;;;4.22;2.45;;;;;;;;;;5019510;28;20252;-65
2022/05/18 10:45:22;;;;;;;2.40;2.08;;;;;;;;;;5014250;28;20730;-65
2022/05/18 10:47:50;;;;;;;2.20;2.00;;;;;;;;;;5017575;28;20226;-65
2022/05/18 10:50:32;;;;;;;2.83;1.90;;;;;;;;;;5009163;28;20616;-64
2022/05/18 10:53:02;;;;;;;1.80;1.70;;;;;;;;;;5015220;28;22676;-65
2022/05/18 10:55:30;;;;;;;2.78;1.77;;;;;;;;;;5012573;28;20217;-64
2022/05/18 10:58:09;;;;;;;3.20;1.88;;;;;;;;;;5015548;28;20285;-65
2022/05/18 11:00:40;;;;;;;1.92;1.75;;;;;;;;;;5013737;28;20205;-65
2022/05/18 11:03:15;;;;;;;3.08;1.58;;;;;;;;;;5034619;28;20213;-64
2022/05/18 11:05:58;;;;;;;1.67;1.40;;;;;;;;;;5049409;28;20214;-65
2022/05/18 11:08:30;;;;;;;2.33;1.58;;;;;;;;;;5026853;28;20222;-64
2022/05/18 11:11:07;;;;;;;1.88;1.58;;;;;;;;;;5028846;28;20253;-65
2022/05/18 11:13:42;;;;;;;1.70;1.60;;;;;;;;;;5026063;28;20273;-65
2022/05/18 11:16:12;;;;;;;1.58;1.50;;;;;;;;;;5026310;28;20206;-64
2022/05/18 11:18:41;;;;;;;1.95;1.80;;;;;;;;;;5038080;28;20222;-65
2022/05/18 11:21:12;;;;;;;2.53;1.60;;;;;;;;;;5015914;28;20214;-65
2022/05/18 11:23:45;;;;;;;2.40;1.30;;;;;;;;;;5008405;28;20210;-64
2022/05/18 11:26:36;;;;;;;2.22;1.60;;;;;;;;;;5010269;28;20214;-64
2022/05/18 11:29:08;;;;;;;2.40;1.58;;;;;;;;;;5027731;28;20243;-65
2022/05/18 11:31:45;;;;;;;2.65;1.63;;;;;;;;;;5009756;28;20241;-64
2022/05/18 11:34:19;;;;;;;2.75;1.52;;;;;;;;;;5007896;28;20202;-64
2022/05/18 11:36:55;;;;;;;2.10;1.83;;;;;;;;;;5025053;28;20252;-64
2022/05/18 11:39:44;;;;;;;2.45;1.70;;;;;;;;;;5019112;28;20276;-65
2022/05/18 11:42:23;;;;;;;2.47;1.60;;;;;;;;;;5002503;28;20206;-66
2022/05/18 11:44:54;;;;;;;3.58;1.70;;;;;;;;;;5019246;28;20573;-65
2022/05/18 11:47:40;;;;;;;2.53;1.80;;;;;;;;;;5018945;28;20287;-66
2022/05/18 11:50:08;;;;;;;2.60;1.75;;;;;;;;;;5038763;28;20237;-64
2022/05/18 11:52:37;;;;;;;1.95;1.83;;;;;;;;;;5022554;28;20226;-64
2022/05/18 11:55:11;;;;;;;1.88;1.77;;;;;;;;;;5012623;28;20699;-65
2022/05/18 11:57:45;;;;;;;2.08;1.55;;;;;;;;;;5023353;28;20679;-65
2022/05/18 12:00:29;;;;;;;1.88;1.75;;;;;;;;;;5015480;28;20234;-65
2022/05/18 12:03:00;;;;;;;2.92;1.73;;;;;;;;;;5039253;28;20214;-65
2022/05/18 12:05:31;;;;;;;1.77;1.52;;;;;;;;;;5020188;28;20297;-65
2022/05/18 12:08:10;;;;;;;2.55;1.60;;;;;;;;;;5015445;28;20218;-65
2022/05/18 12:10:38;;;;;;;1.75;1.52;;;;;;;;;;5018276;28;20692;-66
2022/05/18 12:13:11;;;;;;;1.92;1.70;;;;;;;;;;5007328;28;20221;-65
2022/05/18 12:15:42;;;;;;;3.00;1.80;;;;;;;;;;5014818;28;20672;-65
2022/05/18 12:18:15;;;;;;;2.72;1.80;;;;;;;;;;5011043;28;20308;-64
2022/05/18 12:20:55;;;;;;;2.75;2.00;;;;;;;;;;5020295;28;20221;-65
2022/05/18 12:23:29;;;;;;;2.28;2.00;;;;;;;;;;5010985;28;20206;-66
2022/05/18 12:25:57;;;;;;;4.00;2.10;;;;;;;;;;5015830;28;20210;-64
2022/05/18 12:28:26;;;;;;;2.72;2.00;;;;;;;;;;5010680;28;20241;-66
2022/05/18 12:30:54;;;;;;;3.55;2.08;;;;;;;;;;5013568;28;20708;-66
2022/05/18 12:33:22;;;;;;;2.35;2.10;;;;;;;;;;5014571;28;20566;-66
2022/05/18 12:36:01;;;;;;;3.08;2.20;;;;;;;;;;5012945;28;20221;-65
2022/05/18 12:38:33;;;;;;;3.38;2.00;;;;;;;;;;5011559;28;20229;-65
2022/05/18 12:41:12;;;;;;;2.13;1.90;;;;;;;;;;5015807;28;20303;-66
2022/05/18 12:43:41;;;;;;;2.10;1.90;;;;;;;;;;5011426;28;21094;-65
2022/05/18 12:46:22;;;;;;;2.47;1.60;;;;;;;;;;5009595;28;20224;-65
2022/05/18 12:49:00;;;;;;;2.47;1.85;;;;;;;;;;5017190;28;20234;-64
2022/05/18 12:51:27;;;;;;;1.95;1.40;;;;;;;;;;5017350;28;20245;-65
2022/05/18 12:54:10;;;;;;;2.55;1.88;;;;;;;;;;5013958;28;20206;-65
2022/05/18 12:56:37;;;;;;;3.92;2.00;;;;;;;;;;5014956;28;20202;-66
2022/05/18 12:59:19;;;;;;;2.20;1.80;;;;;;;;;;5011081;28;20233;-65
2022/05/18 13:01:48;;;;;;;2.42;2.20;;;;;;;;;;5008913;28;20203;-65
2022/05/18 13:04:15;;;;;;;2.53;1.98;;;;;;;;;;5016199;28;20274;-65
2022/05/18 13:06:48;;;;;;;2.72;2.45;;;;;;;;;;5038433;28;20841;-65
2022/05/18 13:09:25;;;;;;;2.72;1.85;;;;;;;;;;5011991;28;20218;-65
2022/05/18 13:11:55;;;;;;;2.45;1.80;;;;;;;;;;5014497;28;20843;-65
2022/05/18 13:14:43;;;;;;;3.60;2.10;;;;;;;;;;5015210;28;20761;-66
2022/05/18 13:17:13;;;;;;;3.20;2.45;;;;;;;;;;5017048;28;20206;-65
2022/05/18 13:19:54;;;;;;;2.58;2.00;;;;;;;;;;5013176;28;20230;-67
2022/05/18 13:22:21;;;;;;;2.58;2.08;;;;;;;;;;5038227;28;20210;-65
2022/05/18 13:24:52;;;;;;;3.65;2.08;;;;;;;;;;5017573;28;20225;-67
2022/05/18 13:27:21;;;;;;;4.00;1.90;;;;;;;;;;5016862;28;20214;-67
2022/05/18 13:29:51;;;;;;;2.25;1.92;;;;;;;;;;5036937;28;20790;-65
2022/05/18 13:32:19;;;;;;;2.78;2.10;;;;;;;;;;5020435;28;20229;-67
2022/05/18 13:34:50;;;;;;;2.53;2.30;;;;;;;;;;5018000;28;20233;-64
2022/05/18 13:37:20;;;;;;;3.13;1.98;;;;;;;;;;5030442;28;20199;-65
2022/05/18 13:40:08;;;;;;;2.20;2.00;;;;;;;;;;5012954;28;20704;-65
2022/05/18 13:42:36;;;;;;;3.55;2.22;;;;;;;;;;5014412;28;20214;-66
2022/05/18 13:45:03;;;;;;;2.10;2.00;;;;;;;;;;5010682;28;20214;-65
2022/05/18 13:47:43;;;;;;;2.58;2.15;;;;;;;;;;5024859;28;20202;-65
2022/05/18 13:50:32;;;;;;;5.82;2.25;;;;;;;;;;5008303;28;20233;-67
2022/05/18 13:53:05;;;;;;;3.80;2.40;;;;;;;;;;5003848;28;20762;-65
2022/05/18 13:55:38;;;;;;;3.42;2.17;;;;;;;;;;5006756;28;20753;-66
2022/05/18 13:58:07;;;;;;;2.13;1.90;;;;;;;;;;5003091;28;20591;-66
2022/05/18 14:00:43;;;;;;;2.40;2.20;;;;;;;;;;5006572;28;20234;-66
2022/05/18 14:03:19;;;;;;;2.10;2.00;;;;;;;;;;5017885;28;20214;-66
2022/05/18 14:05:48;;;;;;;2.88;1.88;;;;;;;;;;5009868;28;20239;-67
2022/05/18 14:08:33;;;;;;;2.78;1.90;;;;;;;;;;5020444;28;20237;-66
2022/05/18 14:11:17;;;;;;;2.53;2.22;;;;;;;;;;5015224;28;20218;-65
2022/05/18 14:13:46;;;;;;;4.03;1.95;;;;;;;;;;5026913;28;20210;-66
2022/05/18 14:16:37;;;;;;;2.95;2.10;;;;;;;;;;5011030;28;20229;-66
2022/05/18 14:19:06;;;;;;;2.00;1.88;;;;;;;;;;5000270;28;20226;-65
2022/05/18 14:21:34;;;;;;;2.38;2.15;;;;;;;;;;5031906;28;20210;-66
2022/05/18 14:24:05;;;;;;;2.47;1.77;;;;;;;;;;5018780;28;20206;-66
2022/05/18 14:26:53;;;;;;;2.65;1.58;;;;;;;;;;5034593;28;20947;-65
2022/05/18 14:29:29;;;;;;;2.33;1.63;;;;;;;;;;5019431;28;20226;-65
2022/05/18 14:31:59;;;;;;;2.35;1.67;;;;;;;;;;5018439;28;20241;-65
2022/05/18 14:34:34;;;;;;;1.83;1.60;;;;;;;;;;5021525;28;20206;-65
2022/05/18 14:37:03;;;;;;;4.53;1.60;;;;;;;;;;5018857;28;20685;-65
2022/05/18 14:39:36;;;;;;;2.38;1.63;;;;;;;;;;5033241;28;20230;-65
2022/05/18 14:42:04;;;;;;;2.33;1.85;;;;;;;;;;5018510;28;20852;-66
2022/05/18 14:44:41;;;;;;;3.03;1.90;;;;;;;;;;5013819;28;20720;-66
2022/05/18 14:47:33;;;;;;;3.22;2.10;;;;;;;;;;5026446;28;20252;-66
2022/05/18 14:50:20;;;;;;;4.57;1.83;;;;;;;;;;5022540;28;20230;-65
2022/05/18 14:53:01;;;;;;;5.15;2.22;;;;;;;;;;5014419;28;20312;-64
2022/05/18 14:55:36;;;;;;;2.83;1.80;;;;;;;;;;5009848;28;20202;-66
2022/05/18 14:58:04;;;;;;;2.72;2.15;;;;;;;;;;5020780;28;20208;-66
2022/05/18 15:00:35;;;;;;;2.40;2.00;;;;;;;;;;5018343;28;20198;-65
2022/05/18 15:03:09;;;;;;;1.60;1.50;;;;;;;;;;5017548;28;20210;-66
2022/05/18 15:05:41;;;;;;;2.03;1.60;;;;;;;;;;5022502;28;20214;-65
2022/05/18 15:08:16;;;;;;;1.80;1.70;;;;;;;;;;5021935;28;20202;-66
2022/05/18 15:10:51;;;;;;;2.00;1.80;;;;;;;;;;5038608;28;20220;-67
2022/05/18 15:13:22;;;;;;;1.90;1.80;;;;;;;;;;5014084;28;20229;-66
2022/05/18 15:15:59;;;;;;;3.63;1.90;;;;;;;;;;5009810;28;20221;-67
2022/05/18 15:18:34;;;;;;;2.08;1.83;;;;;;;;;;5015772;28;20257;-66
2022/05/18 15:21:19;;;;;;;2.05;1.60;;;;;;;;;;5008365;28;20262;-66
2022/05/18 15:23:54;;;;;;;2.00;1.75;;;;;;;;;;5009517;28;20209;-66
2022/05/18 15:26:41;;;;;;;1.85;1.50;;;;;;;;;;5014024;28;20210;-66